createdAt,value
2018-08-19T00:00:29.577Z,3.93
2018-08-19T00:03:00.946Z,4.23
2018-08-19T00:05:29.374Z,4.33
2018-08-19T00:07:57.943Z,4.37
2018-08-19T00:10:40.824Z,4.20
2018-08-19T00:13:11.027Z,3.60
2018-08-19T00:15:40.048Z,4.47
2018-08-19T00:18:10.212Z,3.80
2018-08-19T00:20:38.647Z,4.03
2018-08-19T00:23:07.648Z,3.70
2018-08-19T00:25:38.335Z,4.10
2018-08-19T00:28:12.451Z,4.10
2018-08-19T00:30:40.860Z,3.87
2018-08-19T00:33:09.428Z,4.03
2018-08-19T00:35:37.849Z,4.10
2018-08-19T00:38:09.296Z,4.37
2018-08-19T00:40:37.886Z,4.00
2018-08-19T00:43:06.325Z,4.67
2018-08-19T00:45:35.263Z,3.93
2018-08-19T00:48:03.671Z,3.97
2018-08-19T00:50:32.074Z,4.57
2018-08-19T00:53:00.488Z,5.20
2018-08-19T00:56:04.566Z,3.73
2018-08-19T00:58:32.944Z,3.83
2018-08-19T01:01:01.311Z,3.60
2018-08-19T01:03:31.834Z,4.33
2018-08-19T01:06:00.240Z,4.07
2018-08-19T01:08:28.595Z,4.17
2018-08-19T01:10:57.103Z,4.10
2018-08-19T01:13:25.530Z,4.27
2018-08-19T01:15:53.965Z,3.83
2018-08-19T01:18:22.280Z,4.17
2018-08-19T01:20:59.531Z,4.30
2018-08-19T01:23:27.905Z,3.80
2018-08-19T01:25:56.256Z,4.53
2018-08-19T01:28:24.820Z,4.20
2018-08-19T01:30:53.223Z,4.30
2018-08-19T01:33:21.694Z,4.63
2018-08-19T01:35:50.133Z,5.10
2018-08-19T01:38:18.436Z,4.83
2018-08-19T01:40:46.837Z,5.00
2018-08-19T01:43:15.777Z,4.93
2018-08-19T01:45:44.127Z,4.60
2018-08-19T01:48:12.456Z,4.40
2018-08-19T01:50:41.001Z,4.37
2018-08-19T01:53:09.362Z,5.20
2018-08-19T01:55:37.765Z,4.93
2018-08-19T01:58:06.528Z,4.73
2018-08-19T02:00:34.935Z,4.77
2018-08-19T02:03:04.896Z,4.63
2018-08-19T02:05:33.291Z,4.40
2018-08-19T02:08:02.859Z,4.77
2018-08-19T02:10:32.157Z,4.70
2018-08-19T02:13:00.970Z,4.40
2018-08-19T02:15:30.658Z,4.70
2018-08-19T02:18:03.465Z,4.40
2018-08-19T02:20:33.982Z,4.70
2018-08-19T02:23:03.483Z,4.60
2018-08-19T02:25:35.609Z,4.83
2018-08-19T02:28:04.935Z,4.90
2018-08-19T02:30:33.814Z,5.17
2018-08-19T02:33:02.499Z,4.47
2018-08-19T02:35:30.891Z,5.00
2018-08-19T02:37:59.605Z,4.90
2018-08-19T02:40:30.329Z,4.87
2018-08-19T02:42:58.723Z,4.27
2018-08-19T02:45:27.428Z,5.00
2018-08-19T02:47:55.810Z,5.10
2018-08-19T02:50:24.207Z,5.70
2018-08-19T02:52:52.829Z,5.03
2018-08-19T02:55:21.227Z,6.03
2018-08-19T02:57:49.823Z,5.63
2018-08-19T03:00:20.280Z,5.77
2018-08-19T03:02:48.632Z,4.83
2018-08-19T03:05:17.142Z,5.40
2018-08-19T03:07:45.531Z,5.30
2018-08-19T03:10:16.093Z,5.60
2018-08-19T03:12:45.095Z,4.83
2018-08-19T03:15:15.216Z,4.97
2018-08-19T03:17:46.651Z,4.83
2018-08-19T03:20:15.328Z,5.17
2018-08-19T03:22:43.811Z,5.30
2018-08-19T03:25:12.441Z,5.60
2018-08-19T03:27:41.130Z,5.40
2018-08-19T03:30:11.661Z,5.33
2018-08-19T03:32:46.823Z,4.93
2018-08-19T03:35:18.250Z,5.07
2018-08-19T03:37:46.786Z,5.43
2018-08-19T03:40:15.271Z,5.20
2018-08-19T03:42:43.651Z,4.70
2018-08-19T03:45:17.203Z,5.50
2018-08-19T03:47:46.680Z,5.80
2018-08-19T03:50:20.713Z,5.07
2018-08-19T03:52:49.280Z,5.23
2018-08-19T03:55:25.057Z,5.03
2018-08-19T03:57:55.059Z,5.93
2018-08-19T04:00:23.423Z,5.33
2018-08-19T04:02:51.779Z,5.30
2018-08-19T04:05:35.097Z,5.20
2018-08-19T04:08:03.656Z,5.63
2018-08-19T04:10:32.020Z,5.53
2018-08-19T04:13:00.393Z,5.73
2018-08-19T04:15:28.780Z,5.73
2018-08-19T04:17:57.120Z,5.90
2018-08-19T04:20:25.799Z,5.83
2018-08-19T04:22:54.108Z,5.90
2018-08-19T04:25:27.752Z,6.20
2018-08-19T04:27:56.108Z,6.50
2018-08-19T04:30:24.464Z,6.10
2018-08-19T04:32:52.808Z,6.13
2018-08-19T04:35:21.263Z,5.43
2018-08-19T04:37:49.680Z,5.93
2018-08-19T04:40:18.209Z,6.20
2018-08-19T04:42:46.637Z,6.13
2018-08-19T04:45:14.980Z,6.10
2018-08-19T04:47:43.326Z,6.00
2018-08-19T04:50:11.690Z,5.70
2018-08-19T04:52:40.027Z,6.40
2018-08-19T04:55:08.419Z,6.40
2018-08-19T04:57:36.802Z,6.67
2018-08-19T05:00:05.223Z,6.87
2018-08-19T05:02:33.638Z,6.97
2018-08-19T05:05:01.945Z,6.30
2018-08-19T05:07:30.367Z,6.30
2018-08-19T05:09:59.105Z,7.13
2018-08-19T05:12:27.522Z,6.53
2018-08-19T05:14:56.040Z,5.67
2018-08-19T05:17:24.386Z,5.90
2018-08-19T05:19:58.632Z,5.67
2018-08-19T05:22:27.201Z,5.87
2018-08-19T05:24:55.656Z,6.50
2018-08-19T05:27:24.074Z,6.60
2018-08-19T05:29:52.684Z,6.20
2018-08-19T05:32:21.036Z,6.53
2018-08-19T05:34:49.357Z,6.50
2018-08-19T05:37:17.782Z,6.50
2018-08-19T05:39:51.318Z,6.40
2018-08-19T05:42:19.644Z,6.33
2018-08-19T05:44:47.991Z,5.77
2018-08-19T05:47:17.678Z,6.70
2018-08-19T05:49:47.055Z,6.60
2018-08-19T05:52:22.527Z,6.53
2018-08-19T05:54:59.928Z,6.53
2018-08-19T05:57:34.850Z,6.37
2018-08-19T06:00:08.483Z,6.80
2018-08-19T06:02:43.197Z,6.50
2018-08-19T06:05:11.661Z,6.97
2018-08-19T06:07:40.021Z,7.03
2018-08-19T06:10:08.721Z,6.07
2018-08-19T06:12:37.056Z,6.17
2018-08-19T06:15:05.834Z,6.50
2018-08-19T06:17:34.276Z,6.60
2018-08-19T06:20:02.651Z,6.10
2018-08-19T06:22:36.355Z,6.10
2018-08-19T06:25:04.833Z,6.17
2018-08-19T06:27:44.861Z,6.30
2018-08-19T06:30:13.990Z,5.80
2018-08-19T06:32:42.385Z,6.03
2018-08-19T06:35:10.746Z,6.27
2018-08-19T06:37:39.135Z,6.67
2018-08-19T06:40:09.372Z,6.70
2018-08-19T06:42:37.734Z,6.23
2018-08-19T06:45:06.706Z,7.00
2018-08-19T06:47:35.158Z,7.20
2018-08-19T06:50:11.355Z,7.80
2018-08-19T06:52:39.799Z,7.20
2018-08-19T06:55:08.264Z,7.93
2018-08-19T06:57:36.659Z,7.40
2018-08-19T07:00:07.608Z,7.70
2018-08-19T07:02:36.067Z,9.27
2018-08-19T07:05:06.416Z,9.00
2018-08-19T07:07:35.482Z,9.47
2018-08-19T07:10:04.415Z,9.43
2018-08-19T07:12:33.367Z,10.17
2018-08-19T07:15:01.823Z,9.80
2018-08-19T07:17:30.259Z,8.93
2018-08-19T07:19:58.661Z,8.50
2018-08-19T07:22:27.032Z,8.95
2018-08-19T07:24:55.412Z,10.50
2018-08-19T07:27:23.776Z,9.63
2018-08-19T07:29:52.787Z,9.90
2018-08-19T07:32:21.116Z,9.83
2018-08-19T07:34:49.495Z,9.00
2018-08-19T07:37:17.868Z,10.60
2018-08-19T07:39:51.459Z,10.60
2018-08-19T07:42:19.797Z,9.73
2018-08-19T07:44:48.189Z,10.15
2018-08-19T07:47:16.611Z,9.85
2018-08-19T07:49:46.260Z,9.33
2018-08-19T07:52:14.692Z,10.48
2018-08-19T07:54:43.102Z,9.25
2018-08-19T07:57:21.510Z,9.98
2018-08-19T07:59:49.878Z,9.30
2018-08-19T08:02:18.290Z,8.33
2018-08-19T08:04:47.011Z,9.35
2018-08-19T08:07:15.641Z,8.88
2018-08-19T08:09:44.371Z,9.05
2018-08-19T08:12:14.473Z,8.73
2018-08-19T08:14:48.077Z,10.40
2018-08-19T08:17:16.584Z,8.90
2018-08-19T08:19:52.054Z,8.38
2018-08-19T08:22:20.858Z,7.47
2018-08-19T08:24:49.221Z,6.97
2018-08-19T08:27:17.668Z,7.30
2018-08-19T08:29:46.145Z,7.55
2018-08-19T08:32:14.713Z,7.35
2018-08-19T08:34:43.342Z,8.10
2018-08-19T08:37:12.956Z,7.25
2018-08-19T08:39:41.387Z,7.60
2018-08-19T08:42:09.812Z,8.03
2018-08-19T08:44:38.323Z,8.50
2018-08-19T08:47:09.314Z,6.58
2018-08-19T08:49:43.230Z,7.45
2018-08-19T08:52:21.451Z,6.85
2018-08-19T08:55:08.351Z,6.00
2018-08-19T08:57:38.022Z,6.67
2018-08-19T09:00:08.388Z,7.62
2018-08-19T09:02:36.870Z,7.08
2018-08-19T09:05:06.802Z,7.58
2018-08-19T09:07:35.140Z,7.08
2018-08-19T09:10:03.626Z,8.50
2018-08-19T09:12:46.679Z,7.12
2018-08-19T09:15:15.118Z,7.67
2018-08-19T09:17:43.953Z,6.95
2018-08-19T09:20:12.553Z,7.60
2018-08-19T09:22:41.230Z,7.10
2018-08-19T09:25:10.415Z,7.72
2018-08-19T09:27:39.639Z,7.58
2018-08-19T09:30:09.328Z,7.45
2018-08-19T09:33:02.846Z,6.50
2018-08-19T09:35:37.267Z,7.58
2018-08-19T09:38:11.728Z,7.53
2018-08-19T09:40:40.239Z,7.85
2018-08-19T09:43:09.273Z,8.65
2018-08-19T09:45:37.936Z,8.05
2018-08-19T09:48:06.952Z,8.00
2018-08-19T09:50:36.314Z,8.23
2018-08-19T09:53:04.936Z,7.03
2018-08-19T09:55:38.708Z,7.35
2018-08-19T09:58:11.604Z,6.95
2018-08-19T10:00:45.267Z,7.12
2018-08-19T10:03:13.651Z,6.53
2018-08-19T10:05:42.197Z,6.55
2018-08-19T10:08:10.582Z,6.83
2018-08-19T10:10:39.181Z,5.70
2018-08-19T10:13:07.937Z,5.58
2018-08-19T10:15:36.886Z,5.40
2018-08-19T10:18:08.243Z,5.87
2018-08-19T10:20:36.574Z,5.25
2018-08-19T10:23:05.081Z,6.25
2018-08-19T10:25:33.531Z,5.30
2018-08-19T10:28:02.137Z,5.62
2018-08-19T10:30:30.606Z,6.33
2018-08-19T10:33:04.527Z,6.15
2018-08-19T10:35:33.986Z,4.97
2018-08-19T10:38:02.956Z,5.33
2018-08-19T10:40:31.454Z,4.30
2018-08-19T10:43:04.012Z,4.78
2018-08-19T10:45:32.942Z,3.22
2018-08-19T10:48:01.292Z,4.37
2018-08-19T10:50:30.463Z,3.15
2018-08-19T10:52:58.890Z,3.12
2018-08-19T10:55:27.791Z,3.20
2018-08-19T10:57:56.232Z,3.15
2018-08-19T11:00:29.216Z,3.30
2018-08-19T11:03:09.268Z,2.83
2018-08-19T11:05:39.916Z,2.70
2018-08-19T11:08:08.687Z,2.83
2018-08-19T11:10:38.136Z,2.55
2018-08-19T11:13:06.933Z,2.37
2018-08-19T11:15:45.123Z,2.80
2018-08-19T11:18:24.447Z,2.10
2018-08-19T11:20:56.033Z,2.40
2018-08-19T11:23:25.945Z,2.72
2018-08-19T11:25:55.179Z,2.02
2018-08-19T11:28:41.500Z,2.27
2018-08-19T11:31:20.782Z,2.37
2018-08-19T11:33:49.468Z,2.50
2018-08-19T11:36:17.796Z,1.92
2018-08-19T11:38:49.984Z,2.12
2018-08-19T11:41:19.336Z,2.37
2018-08-19T11:43:48.805Z,1.52
2018-08-19T11:46:17.179Z,1.70
2018-08-19T11:48:45.665Z,1.90
2018-08-19T11:51:13.967Z,2.15
2018-08-19T11:53:42.293Z,1.72
2018-08-19T11:56:10.644Z,2.08
2018-08-19T11:58:44.960Z,1.95
2018-08-19T12:01:21.500Z,1.90
2018-08-19T12:03:59.636Z,1.72
2018-08-19T12:06:30.086Z,1.87
2018-08-19T12:08:59.899Z,1.92
2018-08-19T12:11:30.802Z,1.42
2018-08-19T12:14:00.361Z,2.15
2018-08-19T12:16:28.765Z,1.72
2018-08-19T12:19:05.302Z,1.70
2018-08-19T12:21:37.834Z,1.60
2018-08-19T12:24:18.196Z,3.77
2018-08-19T12:26:46.538Z,2.62
2018-08-19T12:29:14.900Z,2.80
2018-08-19T12:31:43.248Z,1.70
2018-08-19T12:34:11.620Z,1.70
2018-08-19T12:36:40.026Z,1.80
2018-08-19T12:39:09.833Z,1.82
2018-08-19T12:41:45.453Z,1.57
2018-08-19T12:44:13.987Z,1.72
2018-08-19T12:46:52.576Z,1.62
2018-08-19T12:49:21.137Z,2.08
2018-08-19T12:51:49.505Z,1.90
2018-08-19T12:54:18.059Z,1.40
2018-08-19T12:56:49.350Z,1.40
2018-08-19T12:59:17.732Z,1.72
2018-08-19T13:01:46.113Z,2.02
2018-08-19T13:04:14.469Z,1.65
2018-08-19T13:06:56.891Z,1.37
2018-08-19T13:09:30.272Z,1.47
2018-08-19T13:12:05.203Z,1.50
2018-08-19T13:14:33.790Z,1.80
2018-08-19T13:17:02.158Z,1.80
2018-08-19T13:19:31.174Z,1.55
2018-08-19T13:22:00.427Z,1.60
2018-08-19T13:24:33.996Z,1.70
2018-08-19T13:27:02.678Z,1.77
2018-08-19T13:29:31.309Z,1.80
2018-08-19T13:31:59.688Z,1.85
2018-08-19T13:34:28.647Z,1.50
2018-08-19T13:36:57.615Z,2.10
2018-08-19T13:39:26.476Z,1.90
2018-08-19T13:41:55.172Z,1.55
2018-08-19T13:44:23.547Z,1.70
2018-08-19T13:46:52.050Z,1.52
2018-08-19T13:49:24.862Z,1.70
2018-08-19T13:51:53.302Z,1.60
2018-08-19T13:54:22.697Z,1.35
2018-08-19T13:56:51.253Z,1.90
2018-08-19T13:59:19.644Z,1.30
2018-08-19T14:01:48.836Z,1.60
2018-08-19T14:04:17.968Z,1.45
2018-08-19T14:06:48.279Z,1.60
2018-08-19T14:09:17.522Z,1.70
2018-08-19T14:11:47.183Z,1.65
2018-08-19T14:14:16.364Z,1.57
2018-08-19T14:16:44.817Z,1.87
2018-08-19T14:19:17.526Z,1.70
2018-08-19T14:21:46.947Z,1.50
2018-08-19T14:24:15.255Z,1.47
2018-08-19T14:26:43.655Z,1.40
2018-08-19T14:29:12.875Z,1.45
2018-08-19T14:31:41.271Z,1.87
2018-08-19T14:34:09.584Z,1.40
2018-08-19T14:36:38.014Z,1.42
2018-08-19T14:39:07.809Z,1.35
2018-08-19T14:41:36.294Z,1.65
2018-08-19T14:44:04.768Z,1.85
2018-08-19T14:46:36.086Z,1.75
2018-08-19T14:49:06.590Z,1.50
2018-08-19T14:52:13.156Z,1.87
2018-08-19T14:54:41.774Z,1.80
2018-08-19T14:57:10.175Z,1.60
2018-08-19T14:59:38.577Z,1.57
2018-08-19T15:02:07.069Z,1.42
2018-08-19T15:04:35.475Z,1.27
2018-08-19T15:07:04.020Z,1.80
2018-08-19T15:09:33.373Z,1.57
2018-08-19T15:12:09.888Z,1.47
2018-08-19T15:14:38.507Z,1.87
2018-08-19T15:17:09.063Z,1.45
2018-08-19T15:19:40.606Z,1.70
2018-08-19T15:22:09.143Z,1.80
2018-08-19T15:24:39.984Z,1.70
2018-08-19T15:27:08.328Z,1.62
2018-08-19T15:29:40.246Z,2.00
2018-08-19T15:32:08.869Z,1.62
2018-08-19T15:34:37.168Z,1.72
2018-08-19T15:37:06.438Z,1.60
2018-08-19T15:39:36.649Z,1.70
2018-08-19T15:42:05.188Z,1.55
2018-08-19T15:44:33.568Z,1.75
2018-08-19T15:47:01.984Z,1.67
2018-08-19T15:49:30.364Z,1.45
2018-08-19T15:51:58.767Z,1.57
2018-08-19T15:54:27.994Z,1.67
2018-08-19T15:57:02.102Z,1.95
2018-08-19T15:59:36.148Z,2.00
2018-08-19T16:02:05.430Z,1.72
2018-08-19T16:04:33.798Z,2.02
2018-08-19T16:07:02.410Z,1.75
2018-08-19T16:09:31.289Z,1.77
2018-08-19T16:11:59.679Z,1.62
2018-08-19T16:14:29.286Z,1.80
2018-08-19T16:16:58.959Z,2.08
2018-08-19T16:19:27.291Z,1.50
2018-08-19T16:21:57.650Z,1.50
2018-08-19T16:24:26.441Z,1.60
2018-08-19T16:26:54.834Z,1.60
2018-08-19T16:29:23.183Z,1.75
2018-08-19T16:31:51.597Z,1.75
2018-08-19T16:34:20.000Z,1.55
2018-08-19T16:36:48.420Z,2.15
2018-08-19T16:39:18.313Z,1.72
2018-08-19T16:41:47.035Z,1.80
2018-08-19T16:44:15.459Z,1.85
2018-08-19T16:46:43.808Z,1.67
2018-08-19T16:49:12.176Z,1.95
2018-08-19T16:51:40.544Z,2.10
2018-08-19T16:54:08.943Z,1.82
2018-08-19T16:56:37.331Z,1.52
2018-08-19T16:59:05.792Z,1.80
2018-08-19T17:01:34.184Z,1.60
2018-08-19T17:04:02.570Z,1.62
2018-08-19T17:06:31.010Z,1.92
2018-08-19T17:08:59.387Z,1.85
2018-08-19T17:11:27.781Z,1.80
2018-08-19T17:13:56.165Z,1.70
2018-08-19T17:16:24.595Z,1.67
2018-08-19T17:18:53.005Z,1.90
2018-08-19T17:21:21.381Z,2.00
2018-08-19T17:23:51.275Z,1.70
2018-08-19T17:26:20.762Z,2.17
2018-08-19T17:28:49.205Z,2.40
2018-08-19T17:31:17.599Z,2.52
2018-08-19T17:33:45.959Z,2.87
2018-08-19T17:36:23.732Z,2.60
2018-08-19T17:38:52.117Z,2.20
2018-08-19T17:41:20.507Z,2.47
2018-08-19T17:43:48.919Z,2.83
2018-08-19T17:46:19.384Z,2.40
2018-08-19T17:48:47.783Z,2.83
2018-08-19T17:51:30.697Z,2.98
2018-08-19T17:53:59.372Z,3.15
2018-08-19T17:56:27.727Z,2.95
2018-08-19T17:58:56.050Z,3.12
2018-08-19T18:01:24.507Z,3.05
2018-08-19T18:03:52.975Z,3.45
2018-08-19T18:06:21.388Z,3.45
2018-08-19T18:08:51.059Z,3.35
2018-08-19T18:11:19.790Z,3.60
2018-08-19T18:13:48.482Z,3.65
2018-08-19T18:16:16.917Z,3.75
2018-08-19T18:18:46.135Z,3.72
2018-08-19T18:21:14.696Z,3.70
2018-08-19T18:23:44.965Z,3.80
2018-08-19T18:26:13.421Z,3.65
2018-08-19T18:28:43.766Z,4.37
2018-08-19T18:31:12.155Z,4.10
2018-08-19T18:33:47.646Z,4.40
2018-08-19T18:36:16.270Z,4.37
2018-08-19T18:38:44.640Z,4.30
2018-08-19T18:41:20.373Z,4.47
2018-08-19T18:43:51.354Z,4.33
2018-08-19T18:46:20.213Z,4.10
2018-08-19T18:48:52.559Z,4.75
2018-08-19T18:51:20.880Z,4.58
2018-08-19T18:53:49.223Z,4.40
2018-08-19T18:56:17.753Z,4.72
2018-08-19T18:58:46.101Z,4.58
2018-08-19T19:01:15.408Z,4.85
2018-08-19T19:03:44.206Z,4.83
2018-08-19T19:06:12.656Z,5.10
2018-08-19T19:08:41.216Z,5.17
2018-08-19T19:11:09.613Z,4.92
2018-08-19T19:13:38.064Z,5.20
2018-08-19T19:16:06.666Z,5.22
2018-08-19T19:18:35.122Z,5.37
2018-08-19T19:21:04.738Z,5.55
2018-08-19T19:23:36.688Z,5.35
2018-08-19T19:26:06.201Z,5.70
2018-08-19T19:28:34.580Z,5.83
2018-08-19T19:31:08.223Z,5.12
2018-08-19T19:33:37.250Z,6.05
2018-08-19T19:36:10.898Z,6.37
2018-08-19T19:38:48.415Z,6.08
2018-08-19T19:41:21.244Z,6.65
2018-08-19T19:43:49.736Z,6.53
2018-08-19T19:46:18.132Z,6.57
2018-08-19T19:48:46.679Z,6.40
2018-08-19T19:51:15.083Z,6.50
2018-08-19T19:53:43.638Z,6.70
2018-08-19T19:56:16.295Z,6.22
2018-08-19T19:58:46.103Z,6.90
2018-08-19T20:01:14.849Z,6.80
2018-08-19T20:03:51.326Z,6.83
2018-08-19T20:06:19.704Z,6.65
2018-08-19T20:08:48.091Z,6.63
2018-08-19T20:11:22.185Z,7.03
2018-08-19T20:13:50.638Z,7.50
2018-08-19T20:16:19.471Z,7.03
2018-08-19T20:18:47.928Z,7.07
2018-08-19T20:21:21.608Z,6.90
2018-08-19T20:23:50.025Z,7.33
2018-08-19T20:26:18.420Z,6.70
2018-08-19T20:28:49.159Z,7.20
2018-08-19T20:31:17.676Z,6.97
2018-08-19T20:33:46.431Z,7.53
2018-08-19T20:36:15.341Z,6.87
2018-08-19T20:38:43.824Z,7.07
2018-08-19T20:41:12.384Z,7.00
2018-08-19T20:43:40.823Z,7.93
2018-08-19T20:46:09.300Z,8.40
2018-08-19T20:48:37.701Z,7.30
2018-08-19T20:51:06.125Z,7.53
2018-08-19T20:53:37.593Z,7.50
2018-08-19T20:56:06.010Z,7.70
2018-08-19T20:58:34.414Z,8.20
2018-08-19T21:01:02.816Z,8.27
2018-08-19T21:03:31.447Z,8.50
2018-08-19T21:05:59.816Z,7.00
2018-08-19T21:08:28.273Z,8.40
2018-08-19T21:10:56.725Z,7.87
2018-08-19T21:13:25.148Z,7.23
2018-08-19T21:15:56.867Z,7.43
2018-08-19T21:18:25.280Z,7.57
2018-08-19T21:20:54.396Z,7.70
2018-08-19T21:23:26.148Z,7.47
2018-08-19T21:26:00.089Z,6.90
2018-08-19T21:28:30.341Z,7.13
2018-08-19T21:30:59.177Z,6.70
2018-08-19T21:33:28.223Z,7.53
2018-08-19T21:35:57.530Z,8.10
2018-08-19T21:38:26.430Z,7.20
2018-08-19T21:40:56.923Z,8.33
2018-08-19T21:43:30.683Z,7.50
2018-08-19T21:46:00.163Z,8.43
2018-08-19T21:48:29.156Z,7.30
2018-08-19T21:50:57.555Z,7.43
2018-08-19T21:53:26.060Z,7.10
2018-08-19T21:55:54.834Z,7.40
2018-08-19T21:58:26.705Z,7.83
2018-08-19T22:00:58.830Z,8.07
2018-08-19T22:03:32.410Z,7.13
2018-08-19T22:06:02.478Z,7.13
2018-08-19T22:08:30.873Z,7.47
2018-08-19T22:10:59.216Z,8.50
2018-08-19T22:13:27.636Z,7.30
2018-08-19T22:15:56.032Z,7.43
2018-08-19T22:18:27.607Z,7.33
2018-08-19T22:21:22.618Z,7.63
2018-08-19T22:23:52.726Z,7.63
2018-08-19T22:26:22.173Z,7.07
2018-08-19T22:29:07.094Z,7.70
2018-08-19T22:31:35.480Z,7.57
2018-08-19T22:34:03.860Z,7.97
2018-08-19T22:36:32.455Z,6.97
2018-08-19T22:39:00.886Z,7.60
2018-08-19T22:41:30.860Z,7.73
2018-08-19T22:43:59.339Z,6.83
2018-08-19T22:46:28.322Z,8.20
2018-08-19T22:49:02.858Z,7.53
2018-08-19T22:51:32.847Z,8.90
2018-08-19T22:54:01.802Z,7.83
2018-08-19T22:56:30.184Z,7.27
2018-08-19T22:58:58.612Z,7.60
2018-08-19T23:01:31.187Z,8.27
2018-08-19T23:04:01.442Z,8.23
2018-08-19T23:06:30.427Z,8.00
2018-08-19T23:08:58.893Z,8.00
2018-08-19T23:11:34.854Z,7.37
2018-08-19T23:14:14.611Z,8.03
2018-08-19T23:16:43.243Z,8.40
2018-08-19T23:19:11.674Z,7.90
2018-08-19T23:21:40.104Z,7.77
2018-08-19T23:24:08.541Z,7.87
2018-08-19T23:26:36.907Z,7.87
2018-08-19T23:29:05.358Z,8.37
2018-08-19T23:31:33.782Z,7.43
2018-08-19T23:34:02.174Z,8.13
2018-08-19T23:36:31.704Z,8.20
2018-08-19T23:39:00.194Z,7.90
2018-08-19T23:41:29.698Z,8.17
2018-08-19T23:43:58.092Z,8.13
2018-08-19T23:46:26.719Z,7.90
2018-08-19T23:48:55.102Z,7.60
2018-08-19T23:51:30.946Z,7.77
2018-08-19T23:54:00.510Z,7.87
2018-08-19T23:56:29.317Z,7.87
2018-08-19T23:58:58.167Z,7.60
